sensor_id;sensor_type;location;lat;lon;timestamp;pressure;altitude;pressure_sealevel;temperature;humidity
30819;BME280;17546;42.674;23.284;2022-07-25T00:00:53;94817.38;;;32.54;38.47
30819;BME280;17546;42.674;23.284;2022-07-25T00:03:18;94818.78;;;32.53;38.32
30819;BME280;17546;42.674;23.284;2022-07-25T00:05:44;94820.41;;;32.42;37.71
30819;BME280;17546;42.674;23.284;2022-07-25T00:08:09;94820.75;;;32.35;38.27
30819;BME280;17546;42.674;23.284;2022-07-25T00:10:35;94809.75;;;32.45;37.69
30819;BME280;17546;42.674;23.284;2022-07-25T00:13:00;94814.88;;;32.46;37.84
30819;BME280;17546;42.674;23.284;2022-07-25T00:15:26;94809.53;;;32.55;38.23
30819;BME280;17546;42.674;23.284;2022-07-25T00:17:51;94821.53;;;32.51;38.72
30819;BME280;17546;42.674;23.284;2022-07-25T00:20:17;94816.22;;;32.45;38.13
30819;BME280;17546;42.674;23.284;2022-07-25T00:22:42;94814.88;;;32.46;38.34
30819;BME280;17546;42.674;23.284;2022-07-25T00:25:08;94817.09;;;32.48;38.72
30819;BME280;17546;42.674;23.284;2022-07-25T00:27:33;94802.28;;;32.38;38.33
30819;BME280;17546;42.674;23.284;2022-07-25T00:29:59;94816.53;;;32.51;39.07
30819;BME280;17546;42.674;23.284;2022-07-25T00:32:24;94807.09;;;32.49;39.41
30819;BME280;17546;42.674;23.284;2022-07-25T00:34:50;94794.34;;;32.52;38.46
30819;BME280;17546;42.674;23.284;2022-07-25T00:37:15;94796.59;;;32.53;39.11
30819;BME280;17546;42.674;23.284;2022-07-25T00:39:40;94784.56;;;32.57;39.26
30819;BME280;17546;42.674;23.284;2022-07-25T00:42:06;94785.31;;;32.58;39.12
30819;BME280;17546;42.674;23.284;2022-07-25T00:44:32;94785.16;;;32.40;38.44
30819;BME280;17546;42.674;23.284;2022-07-25T00:46:59;94793.97;;;32.44;38.71
30819;BME280;17546;42.674;23.284;2022-07-25T00:49:25;94781.00;;;32.43;38.71
30819;BME280;17546;42.674;23.284;2022-07-25T00:51:52;94788.81;;;31.97;38.80
30819;BME280;17546;42.674;23.284;2022-07-25T00:54:18;94793.06;;;31.96;38.67
30819;BME280;17546;42.674;23.284;2022-07-25T00:56:44;94794.78;;;31.87;38.78
30819;BME280;17546;42.674;23.284;2022-07-25T00:59:10;94792.34;;;31.81;39.22
30819;BME280;17546;42.674;23.284;2022-07-25T01:01:37;94788.06;;;31.96;39.44
30819;BME280;17546;42.674;23.284;2022-07-25T01:04:03;94784.81;;;32.02;39.47
30819;BME280;17546;42.674;23.284;2022-07-25T01:06:29;94787.22;;;32.07;39.59
30819;BME280;17546;42.674;23.284;2022-07-25T01:08:55;94790.69;;;32.20;39.03
30819;BME280;17546;42.674;23.284;2022-07-25T01:11:21;94789.53;;;32.11;39.79
30819;BME280;17546;42.674;23.284;2022-07-25T01:13:47;94788.72;;;32.08;39.11
30819;BME280;17546;42.674;23.284;2022-07-25T01:16:12;94788.06;;;32.10;39.77
30819;BME280;17546;42.674;23.284;2022-07-25T01:18:38;94788.34;;;32.16;39.89
30819;BME280;17546;42.674;23.284;2022-07-25T01:21:04;94787.06;;;32.19;39.78
30819;BME280;17546;42.674;23.284;2022-07-25T01:23:29;94785.78;;;32.22;40.21
30819;BME280;17546;42.674;23.284;2022-07-25T01:25:55;94779.63;;;32.28;40.21
30819;BME280;17546;42.674;23.284;2022-07-25T01:28:21;94787.72;;;32.18;40.24
30819;BME280;17546;42.674;23.284;2022-07-25T01:30:46;94786.63;;;32.25;39.82
30819;BME280;17546;42.674;23.284;2022-07-25T01:33:19;94783.56;;;32.21;40.64
30819;BME280;17546;42.674;23.284;2022-07-25T01:35:46;94788.94;;;32.28;40.13
30819;BME280;17546;42.674;23.284;2022-07-25T01:38:13;94788.00;;;32.24;40.08
30819;BME280;17546;42.674;23.284;2022-07-25T01:40:40;94788.84;;;32.26;39.67
30819;BME280;17546;42.674;23.284;2022-07-25T01:43:06;94791.59;;;32.24;39.26
30819;BME280;17546;42.674;23.284;2022-07-25T01:45:31;94788.75;;;32.24;38.82
30819;BME280;17546;42.674;23.284;2022-07-25T01:47:57;94792.34;;;32.25;38.63
30819;BME280;17546;42.674;23.284;2022-07-25T01:50:23;94792.97;;;32.23;39.09
30819;BME280;17546;42.674;23.284;2022-07-25T01:52:49;94790.38;;;32.14;39.09
30819;BME280;17546;42.674;23.284;2022-07-25T01:55:14;94797.31;;;31.95;39.15
30819;BME280;17546;42.674;23.284;2022-07-25T01:57:40;94801.56;;;31.94;38.62
30819;BME280;17546;42.674;23.284;2022-07-25T02:00:08;94794.22;;;31.61;38.51
30819;BME280;17546;42.674;23.284;2022-07-25T02:02:34;94793.53;;;31.76;38.73
30819;BME280;17546;42.674;23.284;2022-07-25T02:05:00;94798.94;;;31.84;38.88
30819;BME280;17546;42.674;23.284;2022-07-25T02:07:25;94800.81;;;31.93;38.95
30819;BME280;17546;42.674;23.284;2022-07-25T02:09:51;94801.78;;;31.98;39.10
30819;BME280;17546;42.674;23.284;2022-07-25T02:12:16;94797.00;;;32.02;39.39
30819;BME280;17546;42.674;23.284;2022-07-25T02:14:42;94803.66;;;32.07;38.89
30819;BME280;17546;42.674;23.284;2022-07-25T02:17:08;94796.09;;;32.14;39.22
30819;BME280;17546;42.674;23.284;2022-07-25T02:19:34;94795.38;;;32.13;39.55
30819;BME280;17546;42.674;23.284;2022-07-25T02:22:00;94796.00;;;32.11;38.96
30819;BME280;17546;42.674;23.284;2022-07-25T02:24:26;94801.00;;;32.11;39.05
30819;BME280;17546;42.674;23.284;2022-07-25T02:26:51;94795.56;;;32.17;38.99
30819;BME280;17546;42.674;23.284;2022-07-25T02:29:16;94812.41;;;32.25;39.00
30819;BME280;17546;42.674;23.284;2022-07-25T02:31:42;94802.84;;;31.90;38.99
30819;BME280;17546;42.674;23.284;2022-07-25T02:34:07;94790.75;;;31.92;38.58
30819;BME280;17546;42.674;23.284;2022-07-25T02:36:33;94801.16;;;31.85;38.62
30819;BME280;17546;42.674;23.284;2022-07-25T02:38:58;94800.94;;;31.81;38.34
30819;BME280;17546;42.674;23.284;2022-07-25T02:41:24;94805.13;;;31.64;38.13
30819;BME280;17546;42.674;23.284;2022-07-25T02:43:49;94800.56;;;31.59;38.89
30819;BME280;17546;42.674;23.284;2022-07-25T02:46:15;94796.16;;;31.42;38.92
30819;BME280;17546;42.674;23.284;2022-07-25T02:48:40;94797.19;;;31.35;39.12
30819;BME280;17546;42.674;23.284;2022-07-25T02:51:06;94795.91;;;31.10;39.68
30819;BME280;17546;42.674;23.284;2022-07-25T02:53:31;94803.44;;;31.04;39.26
30819;BME280;17546;42.674;23.284;2022-07-25T02:55:57;94796.31;;;30.91;39.46
30819;BME280;17546;42.674;23.284;2022-07-25T02:58:22;94793.81;;;30.58;39.77
30819;BME280;17546;42.674;23.284;2022-07-25T03:00:47;94794.13;;;30.24;39.94
30819;BME280;17546;42.674;23.284;2022-07-25T03:03:13;94794.56;;;30.07;40.19
30819;BME280;17546;42.674;23.284;2022-07-25T03:05:38;94804.28;;;30.02;40.27
30819;BME280;17546;42.674;23.284;2022-07-25T03:08:04;94793.72;;;29.79;40.70
30819;BME280;17546;42.674;23.284;2022-07-25T03:10:30;94794.78;;;29.48;41.08
30819;BME280;17546;42.674;23.284;2022-07-25T03:12:55;94795.25;;;29.56;40.83
30819;BME280;17546;42.674;23.284;2022-07-25T03:15:21;94799.69;;;29.71;40.63
30819;BME280;17546;42.674;23.284;2022-07-25T03:17:46;94796.22;;;29.61;40.50
30819;BME280;17546;42.674;23.284;2022-07-25T03:20:12;94797.84;;;29.64;40.28
30819;BME280;17546;42.674;23.284;2022-07-25T03:22:37;94801.97;;;29.49;40.83
30819;BME280;17546;42.674;23.284;2022-07-25T03:25:04;94812.22;;;29.66;40.21
30819;BME280;17546;42.674;23.284;2022-07-25T03:27:29;94805.00;;;29.65;40.08
30819;BME280;17546;42.674;23.284;2022-07-25T03:29:55;94804.91;;;29.63;40.16
30819;BME280;17546;42.674;23.284;2022-07-25T03:32:21;94798.66;;;29.78;40.04
30819;BME280;17546;42.674;23.284;2022-07-25T03:34:47;94810.09;;;29.78;39.71
30819;BME280;17546;42.674;23.284;2022-07-25T03:37:12;94798.78;;;29.80;39.57
30819;BME280;17546;42.674;23.284;2022-07-25T03:39:38;94804.53;;;30.06;39.58
30819;BME280;17546;42.674;23.284;2022-07-25T03:42:03;94798.00;;;30.17;39.10
30819;BME280;17546;42.674;23.284;2022-07-25T03:44:29;94807.84;;;30.14;39.11
30819;BME280;17546;42.674;23.284;2022-07-25T03:46:54;94798.63;;;30.27;38.72
30819;BME280;17546;42.674;23.284;2022-07-25T03:49:20;94808.16;;;30.32;38.49
30819;BME280;17546;42.674;23.284;2022-07-25T03:51:45;94802.47;;;30.20;38.65
30819;BME280;17546;42.674;23.284;2022-07-25T03:54:11;94809.44;;;30.17;38.74
30819;BME280;17546;42.674;23.284;2022-07-25T03:56:48;94815.47;;;29.98;38.93
30819;BME280;17546;42.674;23.284;2022-07-25T03:59:16;94817.56;;;30.35;37.99
30819;BME280;17546;42.674;23.284;2022-07-25T04:01:42;94814.97;;;30.27;37.99
30819;BME280;17546;42.674;23.284;2022-07-25T04:04:08;94823.75;;;30.43;38.18
30819;BME280;17546;42.674;23.284;2022-07-25T04:06:34;94816.53;;;30.42;37.85
30819;BME280;17546;42.674;23.284;2022-07-25T04:08:59;94815.50;;;30.49;37.85
30819;BME280;17546;42.674;23.284;2022-07-25T04:11:25;94813.22;;;30.34;37.92
30819;BME280;17546;42.674;23.284;2022-07-25T04:13:52;94816.66;;;30.44;38.07
30819;BME280;17546;42.674;23.284;2022-07-25T04:16:18;94821.09;;;30.47;37.65
30819;BME280;17546;42.674;23.284;2022-07-25T04:18:44;94816.53;;;30.42;37.76
30819;BME280;17546;42.674;23.284;2022-07-25T04:21:09;94807.22;;;30.41;37.66
30819;BME280;17546;42.674;23.284;2022-07-25T04:23:35;94810.59;;;30.38;37.53
30819;BME280;17546;42.674;23.284;2022-07-25T04:26:01;94800.31;;;30.33;37.48
30819;BME280;17546;42.674;23.284;2022-07-25T04:28:27;94809.22;;;30.13;38.04
30819;BME280;17546;42.674;23.284;2022-07-25T04:30:52;94812.50;;;29.96;37.89
30819;BME280;17546;42.674;23.284;2022-07-25T04:33:18;94805.31;;;30.20;38.13
30819;BME280;17546;42.674;23.284;2022-07-25T04:35:46;94807.16;;;30.02;38.13
30819;BME280;17546;42.674;23.284;2022-07-25T04:38:11;94794.38;;;30.28;37.85
30819;BME280;17546;42.674;23.284;2022-07-25T04:40:37;94798.53;;;30.14;37.77
30819;BME280;17546;42.674;23.284;2022-07-25T04:43:04;94805.31;;;30.20;37.75
30819;BME280;17546;42.674;23.284;2022-07-25T04:45:30;94805.34;;;30.46;37.42
30819;BME280;17546;42.674;23.284;2022-07-25T04:47:55;94806.50;;;30.41;37.10
30819;BME280;17546;42.674;23.284;2022-07-25T04:50:21;94800.44;;;30.35;37.35
30819;BME280;17546;42.674;23.284;2022-07-25T04:52:47;94806.38;;;30.78;36.99
30819;BME280;17546;42.674;23.284;2022-07-25T04:55:13;94813.50;;;30.91;37.15
30819;BME280;17546;42.674;23.284;2022-07-25T04:57:38;94806.84;;;31.00;36.38
30819;BME280;17546;42.674;23.284;2022-07-25T05:00:05;94812.34;;;30.96;36.34
30819;BME280;17546;42.674;23.284;2022-07-25T05:02:33;94812.81;;;30.79;36.92
30819;BME280;17546;42.674;23.284;2022-07-25T05:04:59;94811.19;;;31.01;36.62
30819;BME280;17546;42.674;23.284;2022-07-25T05:07:24;94814.97;;;30.92;36.80
30819;BME280;17546;42.674;23.284;2022-07-25T05:09:50;94811.56;;;30.42;37.23
30819;BME280;17546;42.674;23.284;2022-07-25T05:12:16;94803.34;;;30.23;37.17
30819;BME280;17546;42.674;23.284;2022-07-25T05:14:41;94812.09;;;29.76;38.07
30819;BME280;17546;42.674;23.284;2022-07-25T05:17:07;94806.28;;;29.99;37.96
30819;BME280;17546;42.674;23.284;2022-07-25T05:19:32;94807.16;;;30.02;37.86
30819;BME280;17546;42.674;23.284;2022-07-25T05:21:58;94807.84;;;30.14;37.93
30819;BME280;17546;42.674;23.284;2022-07-25T05:24:23;94809.53;;;29.94;37.98
30819;BME280;17546;42.674;23.284;2022-07-25T05:26:49;94817.88;;;29.90;38.17
30819;BME280;17546;42.674;23.284;2022-07-25T05:29:15;94817.78;;;29.88;38.05
30819;BME280;17546;42.674;23.284;2022-07-25T05:31:41;94816.44;;;30.02;38.00
30819;BME280;17546;42.674;23.284;2022-07-25T05:34:07;94812.75;;;30.00;38.08
30819;BME280;17546;42.674;23.284;2022-07-25T05:36:33;94809.78;;;29.98;38.01
30819;BME280;17546;42.674;23.284;2022-07-25T05:38:58;94807.31;;;30.18;37.82
30819;BME280;17546;42.674;23.284;2022-07-25T05:41:26;94813.94;;;30.08;38.03
30819;BME280;17546;42.674;23.284;2022-07-25T05:43:52;94807.63;;;30.10;37.92
30819;BME280;17546;42.674;23.284;2022-07-25T05:46:17;94814.44;;;30.05;38.13
30819;BME280;17546;42.674;23.284;2022-07-25T05:48:43;94809.97;;;29.76;38.50
30819;BME280;17546;42.674;23.284;2022-07-25T05:51:09;94807.16;;;30.02;38.35
30819;BME280;17546;42.674;23.284;2022-07-25T05:53:34;94806.88;;;30.35;37.43
30819;BME280;17546;42.674;23.284;2022-07-25T05:56:00;94798.13;;;29.94;37.88
30819;BME280;17546;42.674;23.284;2022-07-25T05:58:26;94809.34;;;30.41;37.56
30819;BME280;17546;42.674;23.284;2022-07-25T06:00:52;94805.06;;;30.67;37.18
30819;BME280;17546;42.674;23.284;2022-07-25T06:03:18;94800.81;;;30.55;37.06
30819;BME280;17546;42.674;23.284;2022-07-25T06:05:45;94808.19;;;30.46;37.10
30819;BME280;17546;42.674;23.284;2022-07-25T06:08:11;94802.94;;;29.65;38.57
30819;BME280;17546;42.674;23.284;2022-07-25T06:10:37;94798.19;;;29.82;38.23
30819;BME280;17546;42.674;23.284;2022-07-25T06:13:03;94798.44;;;29.74;38.12
30819;BME280;17546;42.674;23.284;2022-07-25T06:15:28;94798.34;;;29.98;38.06
30819;BME280;17546;42.674;23.284;2022-07-25T06:17:54;94793.91;;;30.46;37.34
30819;BME280;17546;42.674;23.284;2022-07-25T06:20:19;94809.53;;;30.84;36.58
30819;BME280;17546;42.674;23.284;2022-07-25T06:22:45;94811.28;;;29.99;37.85
30819;BME280;17546;42.674;23.284;2022-07-25T06:25:10;94802.22;;;29.91;37.99
30819;BME280;17546;42.674;23.284;2022-07-25T06:27:37;94806.59;;;30.43;37.26
30819;BME280;17546;42.674;23.284;2022-07-25T06:30:04;94806.03;;;30.33;37.33
30819;BME280;17546;42.674;23.284;2022-07-25T06:32:30;94805.81;;;30.82;36.82
30819;BME280;17546;42.674;23.284;2022-07-25T06:34:55;94806.63;;;30.96;36.59
30819;BME280;17546;42.674;23.284;2022-07-25T06:37:21;94796.88;;;31.15;36.56
30819;BME280;17546;42.674;23.284;2022-07-25T06:39:46;94801.63;;;30.97;36.42
30819;BME280;17546;42.674;23.284;2022-07-25T06:42:12;94805.47;;;31.57;35.90
30819;BME280;17546;42.674;23.284;2022-07-25T06:44:38;94795.78;;;31.78;35.21
30819;BME280;17546;42.674;23.284;2022-07-25T06:47:04;94793.50;;;32.04;34.51
30819;BME280;17546;42.674;23.284;2022-07-25T06:49:30;94797.63;;;32.30;34.05
30819;BME280;17546;42.674;23.284;2022-07-25T06:51:55;94795.91;;;32.39;34.34
30819;BME280;17546;42.674;23.284;2022-07-25T06:54:20;94792.31;;;32.09;34.42
30819;BME280;17546;42.674;23.284;2022-07-25T06:56:46;94784.13;;;31.74;35.05
30819;BME280;17546;42.674;23.284;2022-07-25T06:59:11;94784.13;;;32.17;34.76
30819;BME280;17546;42.674;23.284;2022-07-25T07:01:37;94780.88;;;32.70;34.33
30819;BME280;17546;42.674;23.284;2022-07-25T07:04:03;94780.69;;;32.82;33.45
30819;BME280;17546;42.674;23.284;2022-07-25T07:06:29;94790.88;;;33.01;33.18
30819;BME280;17546;42.674;23.284;2022-07-25T07:08:54;94780.22;;;32.56;33.17
30819;BME280;17546;42.674;23.284;2022-07-25T07:11:20;94772.09;;;32.66;32.91
30819;BME280;17546;42.674;23.284;2022-07-25T07:13:45;94787.25;;;33.32;32.52
30819;BME280;17546;42.674;23.284;2022-07-25T07:16:11;94774.34;;;33.49;31.96
30819;BME280;17546;42.674;23.284;2022-07-25T07:18:37;94785.00;;;33.81;31.69
30819;BME280;17546;42.674;23.284;2022-07-25T07:21:03;94780.97;;;34.06;31.34
30819;BME280;17546;42.674;23.284;2022-07-25T07:23:29;94782.88;;;34.35;30.56
30819;BME280;17546;42.674;23.284;2022-07-25T07:25:55;94784.69;;;33.57;30.96
30819;BME280;17546;42.674;23.284;2022-07-25T07:28:20;94784.41;;;33.84;30.71
30819;BME280;17546;42.674;23.284;2022-07-25T07:30:46;94773.94;;;34.09;29.79
30819;BME280;17546;42.674;23.284;2022-07-25T07:33:11;94784.59;;;34.60;29.94
30819;BME280;17546;42.674;23.284;2022-07-25T07:35:37;94772.84;;;34.92;29.13
30819;BME280;17546;42.674;23.284;2022-07-25T07:38:02;94774.38;;;35.13;29.04
30819;BME280;17546;42.674;23.284;2022-07-25T07:40:28;94773.84;;;35.18;28.74
30819;BME280;17546;42.674;23.284;2022-07-25T07:42:53;94770.66;;;35.10;28.52
30819;BME280;17546;42.674;23.284;2022-07-25T07:45:23;94777.88;;;35.11;28.50
30819;BME280;17546;42.674;23.284;2022-07-25T07:47:51;94786.25;;;35.85;28.41
30819;BME280;17546;42.674;23.284;2022-07-25T07:50:19;94778.53;;;35.50;27.67
30819;BME280;17546;42.674;23.284;2022-07-25T07:52:46;94771.41;;;35.31;28.35
30819;BME280;17546;42.674;23.284;2022-07-25T07:55:12;94774.03;;;34.85;29.01
30819;BME280;17546;42.674;23.284;2022-07-25T07:57:56;94774.88;;;34.69;28.89
30819;BME280;17546;42.674;23.284;2022-07-25T08:00:39;94768.28;;;35.45;28.12
30819;BME280;17546;42.674;23.284;2022-07-25T08:03:06;94770.91;;;35.58;27.36
30819;BME280;17546;42.674;23.284;2022-07-25T08:05:40;94774.63;;;35.61;28.04
30819;BME280;17546;42.674;23.284;2022-07-25T08:08:08;94773.03;;;35.78;28.21
30819;BME280;17546;42.674;23.284;2022-07-25T08:10:36;94772.03;;;35.91;26.82
30819;BME280;17546;42.674;23.284;2022-07-25T08:13:15;94772.66;;;36.10;27.00
30819;BME280;17546;42.674;23.284;2022-07-25T08:15:43;94772.66;;;36.32;27.28
30819;BME280;17546;42.674;23.284;2022-07-25T08:18:08;94767.44;;;36.50;26.40
30819;BME280;17546;42.674;23.284;2022-07-25T08:20:34;94773.19;;;36.96;26.59
30819;BME280;17546;42.674;23.284;2022-07-25T08:23:00;94773.88;;;36.49;26.34
30819;BME280;17546;42.674;23.284;2022-07-25T08:25:26;94774.56;;;36.47;26.94
30819;BME280;17546;42.674;23.284;2022-07-25T08:27:52;94764.16;;;35.92;26.88
30819;BME280;17546;42.674;23.284;2022-07-25T08:30:17;94776.56;;;36.18;26.72
30819;BME280;17546;42.674;23.284;2022-07-25T08:32:56;94778.84;;;36.46;27.03
30819;BME280;17546;42.674;23.284;2022-07-25T08:35:24;94768.31;;;36.55;26.03
30819;BME280;17546;42.674;23.284;2022-07-25T08:37:51;94758.78;;;36.26;27.06
30819;BME280;17546;42.674;23.284;2022-07-25T08:40:19;94765.75;;;35.75;27.43
30819;BME280;17546;42.674;23.284;2022-07-25T08:42:46;94772.72;;;35.68;26.71
30819;BME280;17546;42.674;23.284;2022-07-25T08:45:12;94769.16;;;35.49;26.91
30819;BME280;17546;42.674;23.284;2022-07-25T08:47:40;94762.94;;;34.77;27.30
30819;BME280;17546;42.674;23.284;2022-07-25T08:50:12;94765.94;;;35.39;26.16
30819;BME280;17546;42.674;23.284;2022-07-25T08:52:38;94773.84;;;36.03;26.03
30819;BME280;17546;42.674;23.284;2022-07-25T08:55:06;94765.59;;;35.71;25.72
30819;BME280;17546;42.674;23.284;2022-07-25T08:57:33;94762.94;;;35.99;26.10
30819;BME280;17546;42.674;23.284;2022-07-25T09:00:00;94758.38;;;35.70;25.98
30819;BME280;17546;42.674;23.284;2022-07-25T09:02:26;94751.94;;;35.93;25.78
30819;BME280;17546;42.674;23.284;2022-07-25T09:04:53;94756.13;;;36.80;25.46
30819;BME280;17546;42.674;23.284;2022-07-25T09:07:39;94768.72;;;37.17;24.63
30819;BME280;17546;42.674;23.284;2022-07-25T09:12:41;94750.72;;;36.69;25.49
30819;BME280;17546;42.674;23.284;2022-07-25T09:17:50;94760.13;;;37.19;25.05
30819;BME280;17546;42.674;23.284;2022-07-25T09:20:16;94744.09;;;37.40;25.32
30819;BME280;17546;42.674;23.284;2022-07-25T09:22:43;94741.97;;;36.91;24.47
30819;BME280;17546;42.674;23.284;2022-07-25T09:25:20;94742.81;;;36.95;25.42
30819;BME280;17546;42.674;23.284;2022-07-25T09:27:45;94742.47;;;37.07;24.39
30819;BME280;17546;42.674;23.284;2022-07-25T09:30:14;94729.41;;;36.56;25.23
30819;BME280;17546;42.674;23.284;2022-07-25T09:32:40;94730.03;;;36.06;25.68
30819;BME280;17546;42.674;23.284;2022-07-25T09:35:06;94739.31;;;35.60;26.29
30819;BME280;17546;42.674;23.284;2022-07-25T09:37:32;94735.00;;;36.50;26.20
30819;BME280;17546;42.674;23.284;2022-07-25T09:39:57;94732.69;;;36.68;24.62
30819;BME280;17546;42.674;23.284;2022-07-25T09:42:29;94735.88;;;36.78;25.17
30819;BME280;17546;42.674;23.284;2022-07-25T09:45:11;94743.06;;;37.03;24.73
30819;BME280;17546;42.674;23.284;2022-07-25T09:47:49;94732.69;;;37.18;24.57
30819;BME280;17546;42.674;23.284;2022-07-25T09:50:16;94724.66;;;37.69;24.12
30819;BME280;17546;42.674;23.284;2022-07-25T09:52:42;94723.66;;;37.06;25.23
30819;BME280;17546;42.674;23.284;2022-07-25T09:55:09;94732.84;;;36.04;25.55
30819;BME280;17546;42.674;23.284;2022-07-25T09:57:36;94721.75;;;36.40;25.42
30819;BME280;17546;42.674;23.284;2022-07-25T10:00:04;94722.44;;;36.63;24.63
30819;BME280;17546;42.674;23.284;2022-07-25T10:02:51;94721.59;;;37.09;24.69
30819;BME280;17546;42.674;23.284;2022-07-25T10:08:21;94708.72;;;36.88;24.64
30819;BME280;17546;42.674;23.284;2022-07-25T10:10:48;94719.25;;;37.03;24.68
30819;BME280;17546;42.674;23.284;2022-07-25T10:13:16;94721.34;;;37.00;23.86
30819;BME280;17546;42.674;23.284;2022-07-25T10:18:08;94716.81;;;36.93;23.95
30819;BME280;17546;42.674;23.284;2022-07-25T10:20:34;94713.69;;;36.37;23.30
30819;BME280;17546;42.674;23.284;2022-07-25T10:22:59;94702.97;;;36.39;23.83
30819;BME280;17546;42.674;23.284;2022-07-25T10:25:25;94701.50;;;36.38;24.08
30819;BME280;17546;42.674;23.284;2022-07-25T10:27:53;94706.03;;;36.22;24.39
30819;BME280;17546;42.674;23.284;2022-07-25T10:30:34;94707.63;;;36.75;24.05
30819;BME280;17546;42.674;23.284;2022-07-25T10:33:03;94703.09;;;36.44;23.23
30819;BME280;17546;42.674;23.284;2022-07-25T10:35:29;94692.59;;;37.05;22.83
30819;BME280;17546;42.674;23.284;2022-07-25T10:37:56;94689.75;;;37.33;23.21
30819;BME280;17546;42.674;23.284;2022-07-25T10:43:21;94693.22;;;37.01;23.27
30819;BME280;17546;42.674;23.284;2022-07-25T10:45:52;94700.34;;;36.98;24.61
30819;BME280;17546;42.674;23.284;2022-07-25T10:50:57;94691.81;;;36.28;23.83
30819;BME280;17546;42.674;23.284;2022-07-25T10:53:34;94688.97;;;36.30;23.76
30819;BME280;17546;42.674;23.284;2022-07-25T10:56:21;94684.78;;;36.59;23.43
30819;BME280;17546;42.674;23.284;2022-07-25T10:58:48;94683.94;;;36.54;23.27
30819;BME280;17546;42.674;23.284;2022-07-25T11:01:22;94670.75;;;36.97;23.08
30819;BME280;17546;42.674;23.284;2022-07-25T11:03:49;94659.09;;;36.93;23.83
30819;BME280;17546;42.674;23.284;2022-07-25T11:06:15;94676.75;;;37.32;23.77
30819;BME280;17546;42.674;23.284;2022-07-25T11:08:43;94668.38;;;36.90;22.78
30819;BME280;17546;42.674;23.284;2022-07-25T11:11:09;94672.81;;;36.45;22.35
30819;BME280;17546;42.674;23.284;2022-07-25T11:13:40;94674.91;;;36.66;22.47
30819;BME280;17546;42.674;23.284;2022-07-25T11:16:07;94670.69;;;36.69;22.05
30819;BME280;17546;42.674;23.284;2022-07-25T11:18:37;94668.00;;;36.51;22.07
30819;BME280;17546;42.674;23.284;2022-07-25T11:21:07;94655.91;;;37.35;21.38
30819;BME280;17546;42.674;23.284;2022-07-25T11:23:34;94660.56;;;37.49;21.74
30819;BME280;17546;42.674;23.284;2022-07-25T11:26:10;94651.16;;;37.48;21.92
30819;BME280;17546;42.674;23.284;2022-07-25T11:28:42;94647.59;;;37.78;21.82
30819;BME280;17546;42.674;23.284;2022-07-25T11:31:08;94654.28;;;37.87;22.20
30819;BME280;17546;42.674;23.284;2022-07-25T11:33:35;94638.97;;;37.80;21.51
30819;BME280;17546;42.674;23.284;2022-07-25T11:36:01;94642.25;;;37.98;22.43
30819;BME280;17546;42.674;23.284;2022-07-25T11:38:27;94652.84;;;38.18;21.79
30819;BME280;17546;42.674;23.284;2022-07-25T11:40:53;94642.78;;;37.58;21.67
30819;BME280;17546;42.674;23.284;2022-07-25T11:43:20;94639.84;;;37.56;21.32
30819;BME280;17546;42.674;23.284;2022-07-25T11:46:03;94642.78;;;37.58;21.04
30819;BME280;17546;42.674;23.284;2022-07-25T11:48:36;94636.84;;;38.13;21.11
30819;BME280;17546;42.674;23.284;2022-07-25T11:51:16;94639.00;;;37.82;21.19
30819;BME280;17546;42.674;23.284;2022-07-25T11:53:44;94634.13;;;38.21;21.46
30819;BME280;17546;42.674;23.284;2022-07-25T11:56:15;94630.88;;;37.74;21.84
30819;BME280;17546;42.674;23.284;2022-07-25T11:58:41;94632.84;;;38.28;21.17
30819;BME280;17546;42.674;23.284;2022-07-25T12:01:14;94633.34;;;37.86;21.69
30819;BME280;17546;42.674;23.284;2022-07-25T12:03:40;94634.88;;;37.33;22.83
30819;BME280;17546;42.674;23.284;2022-07-25T12:06:10;94642.91;;;37.08;22.88
30819;BME280;17546;42.674;23.284;2022-07-25T12:08:39;94629.69;;;36.73;23.50
30819;BME280;17546;42.674;23.284;2022-07-25T12:11:18;94627.72;;;37.08;23.34
30819;BME280;17546;42.674;23.284;2022-07-25T12:13:44;94620.31;;;37.27;22.76
30819;BME280;17546;42.674;23.284;2022-07-25T12:16:10;94607.56;;;36.81;23.11
30819;BME280;17546;42.674;23.284;2022-07-25T12:18:37;94621.97;;;37.36;22.68
30819;BME280;17546;42.674;23.284;2022-07-25T12:21:02;94611.63;;;37.85;23.26
30819;BME280;17546;42.674;23.284;2022-07-25T12:23:28;94605.81;;;38.15;22.37
30819;BME280;17546;42.674;23.284;2022-07-25T12:25:53;94609.31;;;38.10;22.44
30819;BME280;17546;42.674;23.284;2022-07-25T12:28:19;94610.81;;;37.52;22.34
30819;BME280;17546;42.674;23.284;2022-07-25T12:30:47;94612.28;;;37.81;21.81
30819;BME280;17546;42.674;23.284;2022-07-25T12:33:13;94607.38;;;37.58;21.82
30819;BME280;17546;42.674;23.284;2022-07-25T12:35:39;94605.34;;;38.27;21.19
30819;BME280;17546;42.674;23.284;2022-07-25T12:38:09;94605.13;;;38.17;21.55
30819;BME280;17546;42.674;23.284;2022-07-25T12:40:36;94598.47;;;38.44;22.14
30819;BME280;17546;42.674;23.284;2022-07-25T12:43:03;94594.00;;;38.37;22.19
30819;BME280;17546;42.674;23.284;2022-07-25T12:45:29;94592.63;;;38.06;21.43
30819;BME280;17546;42.674;23.284;2022-07-25T12:47:54;94592.19;;;38.20;21.37
30819;BME280;17546;42.674;23.284;2022-07-25T12:50:20;94592.00;;;38.12;21.42
30819;BME280;17546;42.674;23.284;2022-07-25T12:52:46;94587.59;;;38.09;21.50
30819;BME280;17546;42.674;23.284;2022-07-25T12:55:15;94587.50;;;38.04;21.88
30819;BME280;17546;42.674;23.284;2022-07-25T12:57:41;94592.50;;;38.36;21.39
30819;BME280;17546;42.674;23.284;2022-07-25T13:00:11;94580.53;;;38.50;21.08
30819;BME280;17546;42.674;23.284;2022-07-25T13:02:37;94585.44;;;38.43;21.53
30819;BME280;17546;42.674;23.284;2022-07-25T13:05:03;94573.25;;;38.13;21.78